Quiberon — FNQY — position and weather

sailwx.info

Track history (hours):
 
Tides and Currents Weather Stations Pressure Air Temp Water Temp Dewpoint Dewpoint Depression Visibility Wind Speed Wind Dir Waves Ship Positions

Quiberon

Operator: Brittany Ferries

Last reported at 2017-May-27 00:11 UTC. Time now 2017-May-27 02:13 UTC.
Position N 44°53' W 000°32'.

Length 25 m; draft 4.8 m.

Type: Tug. MMSI: 228296800.

Date/timePositionNaut miles runAvg speedWind from/ knotsBaromVisibWave heightAir tempDewpointWater temp
2017-May-27 00:11N 44°53' W 000°32'0 0.0
2017-May-26 20:50N 44°53' W 000°32'  
2017-May-23 09:30N 45°14' W 000°44'9 1.7
2017-May-23 04:25N 45°05' W 000°40'410.1
2017-May-23 03:59N 45°09' W 000°43'510.0
2017-May-23 03:26N 45°05' W 000°39'  
2017-May-17 07:27N 45°00' W 000°34'0 0.0
2017-May-17 06:59N 45°00' W 000°34'0 0.0
2017-May-17 06:30N 45°00' W 000°34'0 0.0
2017-May-17 06:00N 45°00' W 000°34'0 0.0
2017-May-17 05:31N 45°00' W 000°34'0 0.0
2017-May-17 05:00N 45°00' W 000°34'0 0.0
2017-May-17 04:27N 45°00' W 000°34'3 1.4
2017-May-17 02:24N 45°02' W 000°36'3 7.6
2017-May-17 02:00N 45°04' W 000°39'5 6.8
2017-May-17 01:16N 45°09' W 000°43'2 6.8
2017-May-17 01:00N 45°11' W 000°43'  
Track history (hours):
 
Tides and Currents Weather Stations Pressure Air Temp Water Temp Dewpoint Dewpoint Depression Visibility Wind Speed Wind Dir Waves Ship Positions

Quiberon

Operator: Brittany Ferries

Last reported at 2017-May-27 00:11 UTC. Time now 2017-May-27 02:13 UTC.
Position N 44°53' W 000°32'.

Length 25 m; draft 4.8 m.

Type: Tug. MMSI: 228296800.

Date/timePositionNaut miles runAvg speedWind from/ knotsBaromVisibWave heightAir tempDewpointWater temp
2017-May-27 00:11N 44°53' W 000°32'0 0.0
2017-May-26 20:50N 44°53' W 000°32'  
2017-May-23 09:30N 45°14' W 000°44'9 1.7
2017-May-23 04:25N 45°05' W 000°40'410.1
2017-May-23 03:59N 45°09' W 000°43'510.0
2017-May-23 03:26N 45°05' W 000°39'  
2017-May-17 07:27N 45°00' W 000°34'0 0.0
2017-May-17 06:59N 45°00' W 000°34'0 0.0
2017-May-17 06:30N 45°00' W 000°34'0 0.0
2017-May-17 06:00N 45°00' W 000°34'0 0.0
2017-May-17 05:31N 45°00' W 000°34'0 0.0
2017-May-17 05:00N 45°00' W 000°34'0 0.0
2017-May-17 04:27N 45°00' W 000°34'3 1.4
2017-May-17 02:24N 45°02' W 000°36'3 7.6
2017-May-17 02:00N 45°04' W 000°39'5 6.8
2017-May-17 01:16N 45°09' W 000°43'2 6.8
2017-May-17 01:00N 45°11' W 000°43'  

Dump ship's entire track history